Aviation Digital Data Service (ADDS)

Output produced by METARs form (0639 UTC 22 October 2021)
found at http://www.aviationweather.gov/metar/data/
 
KOSH 220553Z AUTO 34006KT 10SM CLR 03/00 A3006 RMK AO2 SLP187 T00330000 10072 20028 401500028 58000